sensor_id;sensor_type;location;lat;lon;timestamp;P1;durP1;ratioP1;P2;durP2;ratioP2
61188;SDS011;47054;39.716;2.904;2023-08-06T00:00:57;2.88;;;1.73;;
61188;SDS011;47054;39.716;2.904;2023-08-06T00:03:42;5.03;;;1.38;;
61188;SDS011;47054;39.716;2.904;2023-08-06T00:06:26;2.53;;;1.55;;
61188;SDS011;47054;39.716;2.904;2023-08-06T00:09:11;3.17;;;1.30;;
61188;SDS011;47054;39.716;2.904;2023-08-06T00:11:55;6.60;;;1.55;;
61188;SDS011;47054;39.716;2.904;2023-08-06T00:14:40;2.80;;;1.40;;
61188;SDS011;47054;39.716;2.904;2023-08-06T00:17:24;2.70;;;1.50;;
61188;SDS011;47054;39.716;2.904;2023-08-06T00:20:09;3.70;;;1.50;;
61188;SDS011;47054;39.716;2.904;2023-08-06T00:22:54;4.10;;;1.42;;
61188;SDS011;47054;39.716;2.904;2023-08-06T00:25:38;2.15;;;1.20;;
61188;SDS011;47054;39.716;2.904;2023-08-06T00:28:23;3.25;;;1.17;;
61188;SDS011;47054;39.716;2.904;2023-08-06T00:31:07;1.65;;;1.10;;
61188;SDS011;47054;39.716;2.904;2023-08-06T00:33:53;4.68;;;1.50;;
61188;SDS011;47054;39.716;2.904;2023-08-06T00:36:38;3.63;;;1.42;;
61188;SDS011;47054;39.716;2.904;2023-08-06T00:39:23;2.70;;;1.50;;
61188;SDS011;47054;39.716;2.904;2023-08-06T00:42:08;2.15;;;1.17;;
61188;SDS011;47054;39.716;2.904;2023-08-06T00:44:53;3.70;;;1.48;;
61188;SDS011;47054;39.716;2.904;2023-08-06T00:47:37;2.88;;;1.48;;
61188;SDS011;47054;39.716;2.904;2023-08-06T00:50:24;3.50;;;1.38;;
61188;SDS011;47054;39.716;2.904;2023-08-06T00:53:08;2.85;;;1.50;;
61188;SDS011;47054;39.716;2.904;2023-08-06T00:55:53;4.00;;;1.42;;
61188;SDS011;47054;39.716;2.904;2023-08-06T00:58:38;1.98;;;1.30;;
61188;SDS011;47054;39.716;2.904;2023-08-06T01:01:23;2.92;;;1.40;;
61188;SDS011;47054;39.716;2.904;2023-08-06T01:04:08;3.67;;;1.33;;
61188;SDS011;47054;39.716;2.904;2023-08-06T01:13:11;1.50;;;1.17;;
61188;SDS011;47054;39.716;2.904;2023-08-06T01:16:05;2.00;;;1.20;;
61188;SDS011;47054;39.716;2.904;2023-08-06T01:18:51;2.97;;;1.30;;
61188;SDS011;47054;39.716;2.904;2023-08-06T01:21:35;3.88;;;1.25;;
61188;SDS011;47054;39.716;2.904;2023-08-06T01:24:20;2.25;;;1.48;;
61188;SDS011;47054;39.716;2.904;2023-08-06T01:30:12;3.78;;;1.40;;
61188;SDS011;47054;39.716;2.904;2023-08-06T01:33:02;2.70;;;1.20;;
61188;SDS011;47054;39.716;2.904;2023-08-06T01:35:48;2.10;;;1.30;;
61188;SDS011;47054;39.716;2.904;2023-08-06T01:38:35;1.98;;;1.40;;
61188;SDS011;47054;39.716;2.904;2023-08-06T01:41:19;4.65;;;1.60;;
61188;SDS011;47054;39.716;2.904;2023-08-06T01:44:04;2.33;;;1.60;;
61188;SDS011;47054;39.716;2.904;2023-08-06T01:46:49;6.47;;;1.80;;
61188;SDS011;47054;39.716;2.904;2023-08-06T01:49:33;2.03;;;1.30;;
61188;SDS011;47054;39.716;2.904;2023-08-06T01:52:18;2.97;;;1.67;;
61188;SDS011;47054;39.716;2.904;2023-08-06T01:55:03;2.28;;;1.35;;
61188;SDS011;47054;39.716;2.904;2023-08-06T01:57:49;2.75;;;1.60;;
61188;SDS011;47054;39.716;2.904;2023-08-06T02:00:33;3.13;;;1.67;;
61188;SDS011;47054;39.716;2.904;2023-08-06T02:03:18;4.03;;;1.73;;
61188;SDS011;47054;39.716;2.904;2023-08-06T02:06:05;3.63;;;1.60;;
61188;SDS011;47054;39.716;2.904;2023-08-06T02:08:49;4.35;;;1.52;;
61188;SDS011;47054;39.716;2.904;2023-08-06T02:11:34;2.42;;;1.58;;
61188;SDS011;47054;39.716;2.904;2023-08-06T02:14:19;5.70;;;1.98;;
61188;SDS011;47054;39.716;2.904;2023-08-06T02:17:03;4.35;;;1.83;;
61188;SDS011;47054;39.716;2.904;2023-08-06T02:19:48;2.00;;;1.30;;
61188;SDS011;47054;39.716;2.904;2023-08-06T02:22:33;3.05;;;1.60;;
61188;SDS011;47054;39.716;2.904;2023-08-06T02:25:18;3.70;;;1.65;;
61188;SDS011;47054;39.716;2.904;2023-08-06T02:28:02;2.38;;;1.40;;
61188;SDS011;47054;39.716;2.904;2023-08-06T02:30:51;3.70;;;1.30;;
61188;SDS011;47054;39.716;2.904;2023-08-06T02:33:36;1.77;;;1.13;;
61188;SDS011;47054;39.716;2.904;2023-08-06T02:36:20;2.97;;;1.30;;
61188;SDS011;47054;39.716;2.904;2023-08-06T02:39:05;7.53;;;2.22;;
61188;SDS011;47054;39.716;2.904;2023-08-06T02:41:50;2.55;;;1.60;;
61188;SDS011;47054;39.716;2.904;2023-08-06T02:44:35;2.22;;;1.30;;
61188;SDS011;47054;39.716;2.904;2023-08-06T02:47:22;4.30;;;1.50;;
61188;SDS011;47054;39.716;2.904;2023-08-06T02:50:08;3.70;;;1.27;;
61188;SDS011;47054;39.716;2.904;2023-08-06T02:52:53;4.32;;;1.50;;
61188;SDS011;47054;39.716;2.904;2023-08-06T02:55:37;2.03;;;1.30;;
61188;SDS011;47054;39.716;2.904;2023-08-06T03:01:27;2.33;;;1.20;;
61188;SDS011;47054;39.716;2.904;2023-08-06T03:04:17;2.72;;;1.40;;
61188;SDS011;47054;39.716;2.904;2023-08-06T03:07:04;2.38;;;1.35;;
61188;SDS011;47054;39.716;2.904;2023-08-06T03:09:57;2.38;;;1.48;;
61188;SDS011;47054;39.716;2.904;2023-08-06T03:12:43;2.38;;;1.30;;
61188;SDS011;47054;39.716;2.904;2023-08-06T03:15:28;4.78;;;1.60;;
61188;SDS011;47054;39.716;2.904;2023-08-06T03:18:17;4.07;;;1.67;;
61188;SDS011;47054;39.716;2.904;2023-08-06T03:21:02;2.40;;;1.38;;
61188;SDS011;47054;39.716;2.904;2023-08-06T03:23:48;1.33;;;1.10;;
61188;SDS011;47054;39.716;2.904;2023-08-06T03:26:37;3.22;;;1.52;;
61188;SDS011;47054;39.716;2.904;2023-08-06T03:29:23;3.47;;;1.30;;
61188;SDS011;47054;39.716;2.904;2023-08-06T03:32:08;3.22;;;1.48;;
61188;SDS011;47054;39.716;2.904;2023-08-06T03:34:53;2.45;;;1.67;;
61188;SDS011;47054;39.716;2.904;2023-08-06T03:37:39;2.83;;;1.38;;
61188;SDS011;47054;39.716;2.904;2023-08-06T03:40:25;2.10;;;1.40;;
61188;SDS011;47054;39.716;2.904;2023-08-06T03:43:09;1.98;;;1.10;;
61188;SDS011;47054;39.716;2.904;2023-08-06T03:45:54;3.38;;;1.63;;
61188;SDS011;47054;39.716;2.904;2023-08-06T03:48:39;1.95;;;1.10;;
61188;SDS011;47054;39.716;2.904;2023-08-06T03:51:23;1.95;;;1.15;;
61188;SDS011;47054;39.716;2.904;2023-08-06T03:54:10;3.00;;;1.20;;
61188;SDS011;47054;39.716;2.904;2023-08-06T03:56:55;2.58;;;1.42;;
61188;SDS011;47054;39.716;2.904;2023-08-06T03:59:41;2.30;;;1.20;;
61188;SDS011;47054;39.716;2.904;2023-08-06T04:02:25;1.60;;;1.15;;
61188;SDS011;47054;39.716;2.904;2023-08-06T04:05:11;2.25;;;1.10;;
61188;SDS011;47054;39.716;2.904;2023-08-06T04:07:56;2.78;;;1.20;;
61188;SDS011;47054;39.716;2.904;2023-08-06T04:10:40;2.40;;;1.20;;
61188;SDS011;47054;39.716;2.904;2023-08-06T04:13:25;3.05;;;1.48;;
61188;SDS011;47054;39.716;2.904;2023-08-06T04:16:09;2.30;;;1.33;;
61188;SDS011;47054;39.716;2.904;2023-08-06T04:18:54;3.92;;;1.70;;
61188;SDS011;47054;39.716;2.904;2023-08-06T04:21:39;2.90;;;1.33;;
61188;SDS011;47054;39.716;2.904;2023-08-06T04:24:24;2.42;;;1.23;;
61188;SDS011;47054;39.716;2.904;2023-08-06T04:27:12;4.90;;;1.20;;
61188;SDS011;47054;39.716;2.904;2023-08-06T04:29:58;2.08;;;1.33;;
61188;SDS011;47054;39.716;2.904;2023-08-06T04:32:43;3.70;;;1.38;;
61188;SDS011;47054;39.716;2.904;2023-08-06T04:35:28;3.05;;;1.30;;
61188;SDS011;47054;39.716;2.904;2023-08-06T04:38:14;2.35;;;1.13;;
61188;SDS011;47054;39.716;2.904;2023-08-06T04:40:59;3.05;;;1.30;;
61188;SDS011;47054;39.716;2.904;2023-08-06T04:43:44;1.65;;;1.20;;
61188;SDS011;47054;39.716;2.904;2023-08-06T04:46:28;9.00;;;2.13;;
61188;SDS011;47054;39.716;2.904;2023-08-06T04:49:12;4.03;;;1.48;;
61188;SDS011;47054;39.716;2.904;2023-08-06T04:51:58;2.50;;;1.20;;
61188;SDS011;47054;39.716;2.904;2023-08-06T04:54:44;2.90;;;1.25;;
61188;SDS011;47054;39.716;2.904;2023-08-06T04:57:29;2.15;;;1.40;;
61188;SDS011;47054;39.716;2.904;2023-08-06T05:00:13;2.42;;;1.20;;
61188;SDS011;47054;39.716;2.904;2023-08-06T05:02:59;1.73;;;1.20;;
61188;SDS011;47054;39.716;2.904;2023-08-06T05:05:45;3.60;;;1.65;;
61188;SDS011;47054;39.716;2.904;2023-08-06T05:08:30;4.50;;;1.45;;
61188;SDS011;47054;39.716;2.904;2023-08-06T05:11:15;2.97;;;1.50;;
61188;SDS011;47054;39.716;2.904;2023-08-06T05:13:59;2.58;;;1.30;;
61188;SDS011;47054;39.716;2.904;2023-08-06T05:16:44;2.03;;;1.48;;
61188;SDS011;47054;39.716;2.904;2023-08-06T05:19:28;4.18;;;1.35;;
61188;SDS011;47054;39.716;2.904;2023-08-06T05:22:13;2.33;;;1.40;;
61188;SDS011;47054;39.716;2.904;2023-08-06T05:24:57;2.28;;;1.38;;
61188;SDS011;47054;39.716;2.904;2023-08-06T05:27:42;3.38;;;1.75;;
61188;SDS011;47054;39.716;2.904;2023-08-06T05:30:26;3.58;;;1.60;;
61188;SDS011;47054;39.716;2.904;2023-08-06T05:33:11;2.92;;;1.23;;
61188;SDS011;47054;39.716;2.904;2023-08-06T05:35:56;2.33;;;1.40;;
61188;SDS011;47054;39.716;2.904;2023-08-06T05:38:40;2.00;;;1.30;;
61188;SDS011;47054;39.716;2.904;2023-08-06T05:41:25;2.05;;;1.27;;
61188;SDS011;47054;39.716;2.904;2023-08-06T05:44:09;2.55;;;1.45;;
61188;SDS011;47054;39.716;2.904;2023-08-06T05:46:54;1.88;;;1.38;;
61188;SDS011;47054;39.716;2.904;2023-08-06T05:49:39;4.43;;;1.20;;
61188;SDS011;47054;39.716;2.904;2023-08-06T05:52:23;2.00;;;1.30;;
61188;SDS011;47054;39.716;2.904;2023-08-06T05:55:09;2.03;;;1.30;;
61188;SDS011;47054;39.716;2.904;2023-08-06T05:57:53;2.97;;;1.27;;
61188;SDS011;47054;39.716;2.904;2023-08-06T06:00:38;3.75;;;1.70;;
61188;SDS011;47054;39.716;2.904;2023-08-06T06:03:23;3.00;;;1.35;;
61188;SDS011;47054;39.716;2.904;2023-08-06T06:06:08;4.35;;;1.85;;
61188;SDS011;47054;39.716;2.904;2023-08-06T06:08:53;3.35;;;1.77;;
61188;SDS011;47054;39.716;2.904;2023-08-06T06:11:37;3.58;;;1.80;;
61188;SDS011;47054;39.716;2.904;2023-08-06T06:14:22;2.17;;;1.50;;
61188;SDS011;47054;39.716;2.904;2023-08-06T06:17:06;4.78;;;2.20;;
61188;SDS011;47054;39.716;2.904;2023-08-06T06:19:51;4.90;;;1.98;;
61188;SDS011;47054;39.716;2.904;2023-08-06T06:22:36;4.07;;;2.30;;
61188;SDS011;47054;39.716;2.904;2023-08-06T06:25:20;5.70;;;2.30;;
61188;SDS011;47054;39.716;2.904;2023-08-06T06:28:05;6.47;;;2.72;;
61188;SDS011;47054;39.716;2.904;2023-08-06T06:30:49;3.13;;;1.70;;
61188;SDS011;47054;39.716;2.904;2023-08-06T06:33:36;4.10;;;2.80;;
61188;SDS011;47054;39.716;2.904;2023-08-06T06:36:21;3.53;;;1.75;;
61188;SDS011;47054;39.716;2.904;2023-08-06T06:39:06;5.03;;;1.50;;
61188;SDS011;47054;39.716;2.904;2023-08-06T06:41:51;9.32;;;2.55;;
61188;SDS011;47054;39.716;2.904;2023-08-06T06:47:27;6.20;;;2.53;;
61188;SDS011;47054;39.716;2.904;2023-08-06T06:50:12;4.10;;;1.95;;
61188;SDS011;47054;39.716;2.904;2023-08-06T06:52:57;5.13;;;3.08;;
61188;SDS011;47054;39.716;2.904;2023-08-06T06:55:42;10.60;;;3.10;;
61188;SDS011;47054;39.716;2.904;2023-08-06T06:58:26;5.07;;;2.30;;
61188;SDS011;47054;39.716;2.904;2023-08-06T07:01:11;3.97;;;2.00;;
61188;SDS011;47054;39.716;2.904;2023-08-06T07:03:56;3.83;;;2.80;;
61188;SDS011;47054;39.716;2.904;2023-08-06T07:06:41;4.30;;;1.90;;
61188;SDS011;47054;39.716;2.904;2023-08-06T07:09:26;5.50;;;2.38;;
61188;SDS011;47054;39.716;2.904;2023-08-06T07:12:11;6.22;;;3.13;;
61188;SDS011;47054;39.716;2.904;2023-08-06T07:14:55;5.13;;;3.92;;
61188;SDS011;47054;39.716;2.904;2023-08-06T07:17:40;5.10;;;2.22;;
61188;SDS011;47054;39.716;2.904;2023-08-06T19:05:32;7.80;;;2.65;;
61188;SDS011;47054;39.716;2.904;2023-08-06T19:08:17;9.18;;;2.58;;
61188;SDS011;47054;39.716;2.904;2023-08-06T19:11:05;10.68;;;3.45;;
61188;SDS011;47054;39.716;2.904;2023-08-06T19:13:50;10.18;;;2.85;;
61188;SDS011;47054;39.716;2.904;2023-08-06T19:16:35;9.05;;;2.50;;
61188;SDS011;47054;39.716;2.904;2023-08-06T19:19:22;11.25;;;2.40;;
61188;SDS011;47054;39.716;2.904;2023-08-06T19:22:07;8.65;;;2.75;;
61188;SDS011;47054;39.716;2.904;2023-08-06T19:24:52;8.65;;;3.13;;
61188;SDS011;47054;39.716;2.904;2023-08-06T19:27:37;12.35;;;3.22;;
61188;SDS011;47054;39.716;2.904;2023-08-06T19:30:22;8.05;;;2.70;;
61188;SDS011;47054;39.716;2.904;2023-08-06T19:33:07;8.07;;;2.70;;
61188;SDS011;47054;39.716;2.904;2023-08-06T19:35:53;11.02;;;3.55;;
61188;SDS011;47054;39.716;2.904;2023-08-06T19:38:38;11.75;;;3.40;;
61188;SDS011;47054;39.716;2.904;2023-08-06T19:41:23;7.55;;;2.65;;
61188;SDS011;47054;39.716;2.904;2023-08-06T19:44:07;9.90;;;2.78;;
61188;SDS011;47054;39.716;2.904;2023-08-06T19:46:53;7.22;;;2.78;;
61188;SDS011;47054;39.716;2.904;2023-08-06T19:49:37;10.57;;;3.03;;
61188;SDS011;47054;39.716;2.904;2023-08-06T19:52:23;11.60;;;2.55;;
61188;SDS011;47054;39.716;2.904;2023-08-06T19:55:08;6.53;;;2.28;;
61188;SDS011;47054;39.716;2.904;2023-08-06T19:57:52;13.93;;;3.10;;
61188;SDS011;47054;39.716;2.904;2023-08-06T20:00:38;9.68;;;2.40;;
61188;SDS011;47054;39.716;2.904;2023-08-06T20:03:23;11.82;;;3.47;;
61188;SDS011;47054;39.716;2.904;2023-08-06T20:06:08;9.50;;;3.47;;
61188;SDS011;47054;39.716;2.904;2023-08-06T20:08:54;9.70;;;3.03;;
61188;SDS011;47054;39.716;2.904;2023-08-06T20:11:38;13.80;;;3.85;;
61188;SDS011;47054;39.716;2.904;2023-08-06T20:14:23;10.20;;;2.78;;
61188;SDS011;47054;39.716;2.904;2023-08-06T20:17:08;10.35;;;3.10;;
61188;SDS011;47054;39.716;2.904;2023-08-06T20:19:53;12.40;;;3.22;;
61188;SDS011;47054;39.716;2.904;2023-08-06T20:22:38;8.82;;;3.28;;
61188;SDS011;47054;39.716;2.904;2023-08-06T20:25:23;6.82;;;2.63;;
61188;SDS011;47054;39.716;2.904;2023-08-06T20:28:09;15.80;;;3.67;;
61188;SDS011;47054;39.716;2.904;2023-08-06T20:30:54;5.85;;;2.70;;
61188;SDS011;47054;39.716;2.904;2023-08-06T20:33:42;9.57;;;3.15;;
61188;SDS011;47054;39.716;2.904;2023-08-06T20:36:27;9.60;;;3.03;;
61188;SDS011;47054;39.716;2.904;2023-08-06T20:39:11;9.02;;;2.50;;
61188;SDS011;47054;39.716;2.904;2023-08-06T20:41:56;10.82;;;3.00;;
61188;SDS011;47054;39.716;2.904;2023-08-06T20:44:40;9.95;;;2.78;;
61188;SDS011;47054;39.716;2.904;2023-08-06T20:47:25;10.90;;;2.65;;
61188;SDS011;47054;39.716;2.904;2023-08-06T20:50:10;10.35;;;3.47;;
61188;SDS011;47054;39.716;2.904;2023-08-06T20:52:54;9.63;;;2.75;;
61188;SDS011;47054;39.716;2.904;2023-08-06T20:55:39;10.63;;;3.08;;
61188;SDS011;47054;39.716;2.904;2023-08-06T20:58:24;11.05;;;3.15;;
61188;SDS011;47054;39.716;2.904;2023-08-06T21:01:08;12.75;;;3.05;;
61188;SDS011;47054;39.716;2.904;2023-08-06T21:03:53;10.65;;;2.90;;
61188;SDS011;47054;39.716;2.904;2023-08-06T21:06:37;12.60;;;2.53;;
61188;SDS011;47054;39.716;2.904;2023-08-06T21:09:22;9.52;;;3.13;;
61188;SDS011;47054;39.716;2.904;2023-08-06T21:12:06;13.77;;;4.10;;
61188;SDS011;47054;39.716;2.904;2023-08-06T21:14:51;11.70;;;2.67;;
61188;SDS011;47054;39.716;2.904;2023-08-06T21:17:36;12.15;;;3.13;;
61188;SDS011;47054;39.716;2.904;2023-08-06T21:20:21;9.20;;;2.40;;
61188;SDS011;47054;39.716;2.904;2023-08-06T21:23:06;11.88;;;3.30;;
61188;SDS011;47054;39.716;2.904;2023-08-06T21:25:57;7.85;;;3.08;;
61188;SDS011;47054;39.716;2.904;2023-08-06T21:28:43;13.07;;;3.35;;
61188;SDS011;47054;39.716;2.904;2023-08-06T21:31:28;8.38;;;2.58;;
61188;SDS011;47054;39.716;2.904;2023-08-06T21:34:12;10.18;;;2.53;;
61188;SDS011;47054;39.716;2.904;2023-08-06T21:36:57;10.75;;;3.30;;
61188;SDS011;47054;39.716;2.904;2023-08-06T21:39:41;12.80;;;3.10;;
61188;SDS011;47054;39.716;2.904;2023-08-06T21:42:26;10.18;;;2.80;;
61188;SDS011;47054;39.716;2.904;2023-08-06T21:45:10;11.30;;;2.72;;
61188;SDS011;47054;39.716;2.904;2023-08-06T21:47:55;8.10;;;2.28;;
61188;SDS011;47054;39.716;2.904;2023-08-06T21:50:40;10.43;;;2.25;;
61188;SDS011;47054;39.716;2.904;2023-08-06T21:53:24;8.32;;;3.00;;
61188;SDS011;47054;39.716;2.904;2023-08-06T21:56:09;12.23;;;2.85;;
61188;SDS011;47054;39.716;2.904;2023-08-06T21:58:55;7.40;;;2.78;;
61188;SDS011;47054;39.716;2.904;2023-08-06T22:01:42;9.50;;;2.45;;
61188;SDS011;47054;39.716;2.904;2023-08-06T22:04:26;16.23;;;2.72;;
61188;SDS011;47054;39.716;2.904;2023-08-06T22:07:11;15.90;;;3.10;;
61188;SDS011;47054;39.716;2.904;2023-08-06T22:09:55;9.23;;;3.20;;
61188;SDS011;47054;39.716;2.904;2023-08-06T22:12:39;4.45;;;2.17;;
61188;SDS011;47054;39.716;2.904;2023-08-06T22:15:24;7.57;;;2.53;;
61188;SDS011;47054;39.716;2.904;2023-08-06T22:18:10;12.00;;;2.85;;
61188;SDS011;47054;39.716;2.904;2023-08-06T22:20:56;7.97;;;2.70;;
61188;SDS011;47054;39.716;2.904;2023-08-06T22:23:41;9.18;;;3.08;;
61188;SDS011;47054;39.716;2.904;2023-08-06T22:26:27;7.95;;;2.45;;
61188;SDS011;47054;39.716;2.904;2023-08-06T22:29:11;10.02;;;2.20;;
61188;SDS011;47054;39.716;2.904;2023-08-06T22:31:57;6.60;;;2.45;;
61188;SDS011;47054;39.716;2.904;2023-08-06T22:34:42;7.07;;;2.28;;
61188;SDS011;47054;39.716;2.904;2023-08-06T22:37:27;8.93;;;1.95;;
61188;SDS011;47054;39.716;2.904;2023-08-06T22:40:12;11.68;;;3.15;;
61188;SDS011;47054;39.716;2.904;2023-08-06T22:42:58;10.10;;;2.65;;
61188;SDS011;47054;39.716;2.904;2023-08-06T22:45:42;9.18;;;3.05;;
61188;SDS011;47054;39.716;2.904;2023-08-06T22:48:27;6.90;;;2.20;;
61188;SDS011;47054;39.716;2.904;2023-08-06T22:51:13;7.60;;;2.33;;
61188;SDS011;47054;39.716;2.904;2023-08-06T22:53:59;17.70;;;4.03;;
61188;SDS011;47054;39.716;2.904;2023-08-06T22:56:45;8.25;;;2.67;;
61188;SDS011;47054;39.716;2.904;2023-08-06T22:59:29;5.50;;;1.77;;
61188;SDS011;47054;39.716;2.904;2023-08-06T23:02:14;11.30;;;3.08;;
61188;SDS011;47054;39.716;2.904;2023-08-06T23:04:58;8.68;;;2.53;;
61188;SDS011;47054;39.716;2.904;2023-08-06T23:07:43;10.05;;;2.30;;
61188;SDS011;47054;39.716;2.904;2023-08-06T23:10:28;10.63;;;2.85;;
61188;SDS011;47054;39.716;2.904;2023-08-06T23:13:12;7.72;;;2.38;;
61188;SDS011;47054;39.716;2.904;2023-08-06T23:15:57;10.57;;;2.60;;
61188;SDS011;47054;39.716;2.904;2023-08-06T23:18:42;11.07;;;3.20;;
61188;SDS011;47054;39.716;2.904;2023-08-06T23:21:26;6.47;;;2.17;;
61188;SDS011;47054;39.716;2.904;2023-08-06T23:24:11;8.40;;;2.17;;
61188;SDS011;47054;39.716;2.904;2023-08-06T23:26:56;8.90;;;2.13;;
61188;SDS011;47054;39.716;2.904;2023-08-06T23:29:41;6.80;;;2.15;;
61188;SDS011;47054;39.716;2.904;2023-08-06T23:32:27;7.38;;;2.67;;
61188;SDS011;47054;39.716;2.904;2023-08-06T23:35:13;12.00;;;2.45;;
61188;SDS011;47054;39.716;2.904;2023-08-06T23:37:58;7.72;;;2.53;;
61188;SDS011;47054;39.716;2.904;2023-08-06T23:40:43;10.73;;;2.92;;
61188;SDS011;47054;39.716;2.904;2023-08-06T23:43:28;11.27;;;2.67;;
61188;SDS011;47054;39.716;2.904;2023-08-06T23:46:13;8.23;;;2.53;;
61188;SDS011;47054;39.716;2.904;2023-08-06T23:48:57;12.00;;;2.28;;
61188;SDS011;47054;39.716;2.904;2023-08-06T23:51:42;9.18;;;2.45;;
61188;SDS011;47054;39.716;2.904;2023-08-06T23:54:27;8.73;;;2.72;;
61188;SDS011;47054;39.716;2.904;2023-08-06T23:57:11;6.15;;;1.90;;
61188;SDS011;47054;39.716;2.904;2023-08-06T23:59:56;9.02;;;2.10;;
